sensor_id;sensor_type;location;lat;lon;timestamp;P1;durP1;ratioP1;P2;durP2;ratioP2
11346;SDS011;5728;42.722;23.258;2023-04-19T00:01:49;4.13;;;1.93;;
11346;SDS011;5728;42.722;23.258;2023-04-19T00:04:17;4.10;;;2.43;;
11346;SDS011;5728;42.722;23.258;2023-04-19T00:06:44;3.03;;;2.10;;
11346;SDS011;5728;42.722;23.258;2023-04-19T00:09:11;2.03;;;1.70;;
11346;SDS011;5728;42.722;23.258;2023-04-19T00:11:38;4.60;;;2.40;;
11346;SDS011;5728;42.722;23.258;2023-04-19T00:14:04;3.30;;;2.03;;
11346;SDS011;5728;42.722;23.258;2023-04-19T00:16:31;2.03;;;1.90;;
11346;SDS011;5728;42.722;23.258;2023-04-19T00:18:58;3.70;;;2.50;;
11346;SDS011;5728;42.722;23.258;2023-04-19T00:21:27;1.87;;;1.67;;
11346;SDS011;5728;42.722;23.258;2023-04-19T00:23:53;1.83;;;1.60;;
11346;SDS011;5728;42.722;23.258;2023-04-19T00:26:20;1.87;;;1.63;;
11346;SDS011;5728;42.722;23.258;2023-04-19T00:28:47;3.23;;;2.30;;
11346;SDS011;5728;42.722;23.258;2023-04-19T00:31:14;2.47;;;1.90;;
11346;SDS011;5728;42.722;23.258;2023-04-19T00:33:40;3.67;;;2.13;;
11346;SDS011;5728;42.722;23.258;2023-04-19T00:36:08;3.57;;;2.23;;
11346;SDS011;5728;42.722;23.258;2023-04-19T00:38:36;3.60;;;1.90;;
11346;SDS011;5728;42.722;23.258;2023-04-19T00:41:03;2.53;;;2.20;;
11346;SDS011;5728;42.722;23.258;2023-04-19T00:43:30;2.57;;;2.17;;
11346;SDS011;5728;42.722;23.258;2023-04-19T00:45:56;3.03;;;2.37;;
11346;SDS011;5728;42.722;23.258;2023-04-19T00:48:23;1.90;;;1.80;;
11346;SDS011;5728;42.722;23.258;2023-04-19T00:50:51;2.27;;;1.90;;
11346;SDS011;5728;42.722;23.258;2023-04-19T00:53:17;4.30;;;4.00;;
11346;SDS011;5728;42.722;23.258;2023-04-19T00:55:46;3.27;;;2.03;;
11346;SDS011;5728;42.722;23.258;2023-04-19T00:58:15;3.87;;;2.20;;
11346;SDS011;5728;42.722;23.258;2023-04-19T01:00:43;2.33;;;2.13;;
11346;SDS011;5728;42.722;23.258;2023-04-19T01:03:10;2.63;;;2.00;;
11346;SDS011;5728;42.722;23.258;2023-04-19T01:05:37;2.50;;;2.30;;
11346;SDS011;5728;42.722;23.258;2023-04-19T01:08:04;2.20;;;2.00;;
11346;SDS011;5728;42.722;23.258;2023-04-19T01:10:32;5.47;;;2.40;;
11346;SDS011;5728;42.722;23.258;2023-04-19T01:13:00;2.40;;;2.20;;
11346;SDS011;5728;42.722;23.258;2023-04-19T01:15:27;2.93;;;2.13;;
11346;SDS011;5728;42.722;23.258;2023-04-19T01:17:55;2.97;;;2.23;;
11346;SDS011;5728;42.722;23.258;2023-04-19T01:20:22;2.87;;;2.17;;
11346;SDS011;5728;42.722;23.258;2023-04-19T01:22:50;2.60;;;2.40;;
11346;SDS011;5728;42.722;23.258;2023-04-19T01:25:17;3.10;;;2.67;;
11346;SDS011;5728;42.722;23.258;2023-04-19T01:27:43;2.87;;;2.30;;
11346;SDS011;5728;42.722;23.258;2023-04-19T01:30:10;2.57;;;2.20;;
11346;SDS011;5728;42.722;23.258;2023-04-19T01:32:38;2.73;;;2.10;;
11346;SDS011;5728;42.722;23.258;2023-04-19T01:35:05;2.20;;;2.00;;
11346;SDS011;5728;42.722;23.258;2023-04-19T01:37:35;3.33;;;2.37;;
11346;SDS011;5728;42.722;23.258;2023-04-19T01:40:03;2.43;;;2.23;;
11346;SDS011;5728;42.722;23.258;2023-04-19T01:42:31;2.60;;;2.40;;
11346;SDS011;5728;42.722;23.258;2023-04-19T01:44:58;3.10;;;2.50;;
11346;SDS011;5728;42.722;23.258;2023-04-19T01:47:25;3.07;;;2.27;;
11346;SDS011;5728;42.722;23.258;2023-04-19T01:49:52;2.70;;;2.50;;
11346;SDS011;5728;42.722;23.258;2023-04-19T01:52:19;2.67;;;2.37;;
11346;SDS011;5728;42.722;23.258;2023-04-19T01:54:46;4.27;;;2.77;;
11346;SDS011;5728;42.722;23.258;2023-04-19T01:57:14;3.43;;;2.83;;
11346;SDS011;5728;42.722;23.258;2023-04-19T01:59:42;2.53;;;2.33;;
11346;SDS011;5728;42.722;23.258;2023-04-19T02:02:09;4.50;;;2.87;;
11346;SDS011;5728;42.722;23.258;2023-04-19T02:04:36;3.43;;;2.70;;
11346;SDS011;5728;42.722;23.258;2023-04-19T02:07:03;4.03;;;2.60;;
11346;SDS011;5728;42.722;23.258;2023-04-19T02:09:29;3.60;;;2.90;;
11346;SDS011;5728;42.722;23.258;2023-04-19T02:11:56;3.33;;;2.67;;
11346;SDS011;5728;42.722;23.258;2023-04-19T02:14:24;5.90;;;3.70;;
11346;SDS011;5728;42.722;23.258;2023-04-19T02:16:51;3.20;;;2.70;;
11346;SDS011;5728;42.722;23.258;2023-04-19T02:19:18;3.40;;;3.10;;
11346;SDS011;5728;42.722;23.258;2023-04-19T02:21:45;3.03;;;2.73;;
11346;SDS011;5728;42.722;23.258;2023-04-19T02:24:11;3.07;;;2.77;;
11346;SDS011;5728;42.722;23.258;2023-04-19T02:26:38;3.10;;;2.70;;
11346;SDS011;5728;42.722;23.258;2023-04-19T02:29:05;7.30;;;3.73;;
11346;SDS011;5728;42.722;23.258;2023-04-19T02:31:33;4.20;;;3.80;;
11346;SDS011;5728;42.722;23.258;2023-04-19T02:34:01;4.00;;;3.47;;
11346;SDS011;5728;42.722;23.258;2023-04-19T02:36:28;3.70;;;3.30;;
11346;SDS011;5728;42.722;23.258;2023-04-19T02:38:55;2.90;;;2.70;;
11346;SDS011;5728;42.722;23.258;2023-04-19T02:41:23;3.17;;;2.87;;
11346;SDS011;5728;42.722;23.258;2023-04-19T02:43:50;5.33;;;3.30;;
11346;SDS011;5728;42.722;23.258;2023-04-19T02:46:16;7.20;;;3.50;;
11346;SDS011;5728;42.722;23.258;2023-04-19T02:48:45;4.50;;;3.40;;
11346;SDS011;5728;42.722;23.258;2023-04-19T02:51:13;3.80;;;3.30;;
11346;SDS011;5728;42.722;23.258;2023-04-19T02:53:41;4.00;;;3.60;;
11346;SDS011;5728;42.722;23.258;2023-04-19T02:56:08;4.37;;;3.30;;
11346;SDS011;5728;42.722;23.258;2023-04-19T02:58:34;4.17;;;3.37;;
11346;SDS011;5728;42.722;23.258;2023-04-19T03:01:01;5.47;;;3.10;;
11346;SDS011;5728;42.722;23.258;2023-04-19T03:03:28;3.83;;;3.20;;
11346;SDS011;5728;42.722;23.258;2023-04-19T03:05:56;4.43;;;3.40;;
11346;SDS011;5728;42.722;23.258;2023-04-19T03:08:23;5.03;;;3.87;;
11346;SDS011;5728;42.722;23.258;2023-04-19T03:10:50;5.17;;;3.93;;
11346;SDS011;5728;42.722;23.258;2023-04-19T03:13:16;4.77;;;3.47;;
11346;SDS011;5728;42.722;23.258;2023-04-19T03:15:43;4.00;;;3.40;;
11346;SDS011;5728;42.722;23.258;2023-04-19T03:18:10;4.40;;;3.70;;
11346;SDS011;5728;42.722;23.258;2023-04-19T03:20:36;3.77;;;3.40;;
11346;SDS011;5728;42.722;23.258;2023-04-19T03:23:05;4.20;;;3.60;;
11346;SDS011;5728;42.722;23.258;2023-04-19T03:25:31;4.43;;;4.03;;
11346;SDS011;5728;42.722;23.258;2023-04-19T03:27:58;5.80;;;3.67;;
11346;SDS011;5728;42.722;23.258;2023-04-19T03:30:25;3.90;;;3.30;;
11346;SDS011;5728;42.722;23.258;2023-04-19T03:32:52;9.83;;;4.27;;
11346;SDS011;5728;42.722;23.258;2023-04-19T03:35:19;3.23;;;2.60;;
11346;SDS011;5728;42.722;23.258;2023-04-19T03:37:46;3.90;;;3.60;;
11346;SDS011;5728;42.722;23.258;2023-04-19T03:40:14;3.97;;;3.43;;
11346;SDS011;5728;42.722;23.258;2023-04-19T03:42:41;4.40;;;3.13;;
11346;SDS011;5728;42.722;23.258;2023-04-19T03:45:08;9.70;;;3.43;;
11346;SDS011;5728;42.722;23.258;2023-04-19T03:47:35;5.07;;;4.03;;
11346;SDS011;5728;42.722;23.258;2023-04-19T03:50:02;4.90;;;4.07;;
11346;SDS011;5728;42.722;23.258;2023-04-19T03:52:29;5.27;;;3.93;;
11346;SDS011;5728;42.722;23.258;2023-04-19T03:54:56;5.23;;;4.27;;
11346;SDS011;5728;42.722;23.258;2023-04-19T03:57:25;5.67;;;3.67;;
11346;SDS011;5728;42.722;23.258;2023-04-19T03:59:51;5.10;;;4.30;;
11346;SDS011;5728;42.722;23.258;2023-04-19T04:02:18;3.50;;;3.20;;
11346;SDS011;5728;42.722;23.258;2023-04-19T04:04:45;7.27;;;4.20;;
11346;SDS011;5728;42.722;23.258;2023-04-19T04:07:11;8.57;;;4.07;;
11346;SDS011;5728;42.722;23.258;2023-04-19T04:09:38;3.80;;;3.50;;
11346;SDS011;5728;42.722;23.258;2023-04-19T04:12:05;4.77;;;4.10;;
11346;SDS011;5728;42.722;23.258;2023-04-19T04:14:33;6.67;;;4.30;;
11346;SDS011;5728;42.722;23.258;2023-04-19T04:16:59;4.53;;;4.13;;
11346;SDS011;5728;42.722;23.258;2023-04-19T04:19:26;5.00;;;4.60;;
11346;SDS011;5728;42.722;23.258;2023-04-19T04:21:53;6.07;;;4.83;;
11346;SDS011;5728;42.722;23.258;2023-04-19T04:24:20;4.93;;;4.43;;
11346;SDS011;5728;42.722;23.258;2023-04-19T04:26:47;8.90;;;6.57;;
11346;SDS011;5728;42.722;23.258;2023-04-19T04:29:15;7.00;;;5.63;;
11346;SDS011;5728;42.722;23.258;2023-04-19T04:31:43;5.90;;;4.57;;
11346;SDS011;5728;42.722;23.258;2023-04-19T04:34:11;5.87;;;4.70;;
11346;SDS011;5728;42.722;23.258;2023-04-19T04:36:38;5.17;;;4.40;;
11346;SDS011;5728;42.722;23.258;2023-04-19T04:39:06;6.87;;;4.83;;
11346;SDS011;5728;42.722;23.258;2023-04-19T04:41:34;9.13;;;5.50;;
11346;SDS011;5728;42.722;23.258;2023-04-19T04:44:01;5.77;;;4.40;;
11346;SDS011;5728;42.722;23.258;2023-04-19T04:46:28;9.87;;;4.50;;
11346;SDS011;5728;42.722;23.258;2023-04-19T04:48:56;4.33;;;3.93;;
11346;SDS011;5728;42.722;23.258;2023-04-19T04:51:23;5.30;;;4.30;;
11346;SDS011;5728;42.722;23.258;2023-04-19T04:53:50;5.17;;;4.40;;
11346;SDS011;5728;42.722;23.258;2023-04-19T04:56:17;5.73;;;4.27;;
11346;SDS011;5728;42.722;23.258;2023-04-19T04:58:43;4.90;;;3.83;;
11346;SDS011;5728;42.722;23.258;2023-04-19T05:01:10;5.23;;;4.57;;
11346;SDS011;5728;42.722;23.258;2023-04-19T05:03:37;5.70;;;4.23;;
11346;SDS011;5728;42.722;23.258;2023-04-19T05:06:05;6.23;;;4.77;;
11346;SDS011;5728;42.722;23.258;2023-04-19T05:08:32;4.83;;;4.07;;
11346;SDS011;5728;42.722;23.258;2023-04-19T05:10:59;7.33;;;4.47;;
11346;SDS011;5728;42.722;23.258;2023-04-19T05:13:26;6.50;;;5.13;;
11346;SDS011;5728;42.722;23.258;2023-04-19T05:15:52;5.97;;;4.50;;
11346;SDS011;5728;42.722;23.258;2023-04-19T05:18:19;8.30;;;4.03;;
11346;SDS011;5728;42.722;23.258;2023-04-19T05:20:46;5.20;;;4.10;;
11346;SDS011;5728;42.722;23.258;2023-04-19T05:23:14;4.60;;;3.90;;
11346;SDS011;5728;42.722;23.258;2023-04-19T05:25:41;5.70;;;4.37;;
11346;SDS011;5728;42.722;23.258;2023-04-19T05:28:08;6.03;;;4.57;;
11346;SDS011;5728;42.722;23.258;2023-04-19T05:30:34;5.60;;;4.77;;
11346;SDS011;5728;42.722;23.258;2023-04-19T05:33:01;9.40;;;4.73;;
11346;SDS011;5728;42.722;23.258;2023-04-19T05:35:28;6.10;;;4.37;;
11346;SDS011;5728;42.722;23.258;2023-04-19T05:37:54;10.73;;;5.07;;
11346;SDS011;5728;42.722;23.258;2023-04-19T05:40:23;6.63;;;4.27;;
11346;SDS011;5728;42.722;23.258;2023-04-19T05:42:49;4.97;;;4.43;;
11346;SDS011;5728;42.722;23.258;2023-04-19T05:45:17;4.50;;;3.83;;
11346;SDS011;5728;42.722;23.258;2023-04-19T05:47:43;6.17;;;4.90;;
11346;SDS011;5728;42.722;23.258;2023-04-19T05:50:10;6.80;;;4.60;;
11346;SDS011;5728;42.722;23.258;2023-04-19T05:52:39;5.23;;;3.90;;
11346;SDS011;5728;42.722;23.258;2023-04-19T05:55:06;5.57;;;4.37;;
11346;SDS011;5728;42.722;23.258;2023-04-19T05:57:35;5.93;;;4.93;;
11346;SDS011;5728;42.722;23.258;2023-04-19T06:00:02;5.27;;;4.53;;
11346;SDS011;5728;42.722;23.258;2023-04-19T06:02:29;5.60;;;4.57;;
11346;SDS011;5728;42.722;23.258;2023-04-19T06:04:56;4.40;;;4.00;;
11346;SDS011;5728;42.722;23.258;2023-04-19T06:07:23;4.70;;;4.27;;
11346;SDS011;5728;42.722;23.258;2023-04-19T06:09:50;4.40;;;4.00;;
11346;SDS011;5728;42.722;23.258;2023-04-19T06:12:16;4.40;;;4.00;;
11346;SDS011;5728;42.722;23.258;2023-04-19T06:14:45;4.87;;;3.43;;
11346;SDS011;5728;42.722;23.258;2023-04-19T06:17:11;4.80;;;4.20;;
11346;SDS011;5728;42.722;23.258;2023-04-19T06:19:38;5.30;;;3.27;;
11346;SDS011;5728;42.722;23.258;2023-04-19T06:22:05;6.83;;;4.60;;
11346;SDS011;5728;42.722;23.258;2023-04-19T06:24:32;4.13;;;3.73;;
11346;SDS011;5728;42.722;23.258;2023-04-19T06:26:58;8.83;;;4.57;;
11346;SDS011;5728;42.722;23.258;2023-04-19T06:29:26;4.93;;;4.47;;
11346;SDS011;5728;42.722;23.258;2023-04-19T06:31:54;4.67;;;3.93;;
11346;SDS011;5728;42.722;23.258;2023-04-19T06:34:21;4.90;;;3.77;;
11346;SDS011;5728;42.722;23.258;2023-04-19T06:36:47;5.40;;;4.13;;
11346;SDS011;5728;42.722;23.258;2023-04-19T06:39:14;4.20;;;3.50;;
11346;SDS011;5728;42.722;23.258;2023-04-19T06:41:41;7.70;;;3.97;;
11346;SDS011;5728;42.722;23.258;2023-04-19T06:44:08;6.03;;;4.10;;
11346;SDS011;5728;42.722;23.258;2023-04-19T06:46:35;6.17;;;4.13;;
11346;SDS011;5728;42.722;23.258;2023-04-19T06:49:03;7.97;;;4.77;;
11346;SDS011;5728;42.722;23.258;2023-04-19T06:51:30;4.80;;;4.10;;
11346;SDS011;5728;42.722;23.258;2023-04-19T06:53:57;4.67;;;3.93;;
11346;SDS011;5728;42.722;23.258;2023-04-19T06:56:40;4.73;;;3.57;;
11346;SDS011;5728;42.722;23.258;2023-04-19T06:59:10;5.30;;;4.00;;
11346;SDS011;5728;42.722;23.258;2023-04-19T07:01:37;5.73;;;4.20;;
11346;SDS011;5728;42.722;23.258;2023-04-19T07:04:06;12.30;;;3.90;;
11346;SDS011;5728;42.722;23.258;2023-04-19T07:06:33;4.43;;;3.93;;
11346;SDS011;5728;42.722;23.258;2023-04-19T07:09:00;5.50;;;3.90;;
11346;SDS011;5728;42.722;23.258;2023-04-19T07:11:28;6.20;;;4.13;;
11346;SDS011;5728;42.722;23.258;2023-04-19T07:13:54;5.27;;;4.03;;
11346;SDS011;5728;42.722;23.258;2023-04-19T07:16:21;3.77;;;3.43;;
11346;SDS011;5728;42.722;23.258;2023-04-19T07:18:48;4.60;;;3.60;;
11346;SDS011;5728;42.722;23.258;2023-04-19T07:21:16;5.10;;;3.20;;
11346;SDS011;5728;42.722;23.258;2023-04-19T07:23:43;4.63;;;3.80;;
11346;SDS011;5728;42.722;23.258;2023-04-19T07:26:10;5.07;;;4.00;;
11346;SDS011;5728;42.722;23.258;2023-04-19T07:28:39;4.10;;;3.30;;
11346;SDS011;5728;42.722;23.258;2023-04-19T07:31:06;5.47;;;3.80;;
11346;SDS011;5728;42.722;23.258;2023-04-19T07:33:33;4.67;;;3.40;;
11346;SDS011;5728;42.722;23.258;2023-04-19T07:35:59;5.13;;;3.87;;
11346;SDS011;5728;42.722;23.258;2023-04-19T07:38:27;3.30;;;3.00;;
11346;SDS011;5728;42.722;23.258;2023-04-19T07:40:54;5.27;;;3.80;;
11346;SDS011;5728;42.722;23.258;2023-04-19T07:43:21;6.07;;;3.50;;
11346;SDS011;5728;42.722;23.258;2023-04-19T07:45:48;3.43;;;3.13;;
11346;SDS011;5728;42.722;23.258;2023-04-19T07:48:18;3.90;;;3.23;;
11346;SDS011;5728;42.722;23.258;2023-04-19T07:50:51;4.40;;;3.47;;
11346;SDS011;5728;42.722;23.258;2023-04-19T07:53:18;3.57;;;2.90;;
11346;SDS011;5728;42.722;23.258;2023-04-19T07:55:46;6.40;;;2.93;;
11346;SDS011;5728;42.722;23.258;2023-04-19T07:58:13;4.27;;;3.60;;
11346;SDS011;5728;42.722;23.258;2023-04-19T08:00:40;5.70;;;3.20;;
11346;SDS011;5728;42.722;23.258;2023-04-19T08:03:07;3.63;;;3.23;;
11346;SDS011;5728;42.722;23.258;2023-04-19T08:05:33;5.70;;;3.03;;
11346;SDS011;5728;42.722;23.258;2023-04-19T08:08:00;3.53;;;3.10;;
11346;SDS011;5728;42.722;23.258;2023-04-19T08:10:29;4.27;;;3.27;;
11346;SDS011;5728;42.722;23.258;2023-04-19T08:12:58;4.77;;;3.17;;
11346;SDS011;5728;42.722;23.258;2023-04-19T08:15:24;3.67;;;3.00;;
11346;SDS011;5728;42.722;23.258;2023-04-19T08:17:51;7.83;;;3.00;;
11346;SDS011;5728;42.722;23.258;2023-04-19T08:20:18;2.70;;;2.50;;
11346;SDS011;5728;42.722;23.258;2023-04-19T08:22:46;3.70;;;2.83;;
11346;SDS011;5728;42.722;23.258;2023-04-19T08:25:13;2.97;;;2.60;;
11346;SDS011;5728;42.722;23.258;2023-04-19T08:27:40;2.87;;;2.50;;
11346;SDS011;5728;42.722;23.258;2023-04-19T08:30:09;4.13;;;2.87;;
11346;SDS011;5728;42.722;23.258;2023-04-19T08:32:36;3.17;;;2.77;;
11346;SDS011;5728;42.722;23.258;2023-04-19T08:35:03;3.27;;;2.60;;
11346;SDS011;5728;42.722;23.258;2023-04-19T08:37:32;2.87;;;2.43;;
11346;SDS011;5728;42.722;23.258;2023-04-19T08:39:59;3.07;;;2.77;;
11346;SDS011;5728;42.722;23.258;2023-04-19T08:42:25;2.50;;;2.30;;
11346;SDS011;5728;42.722;23.258;2023-04-19T08:44:52;2.87;;;2.47;;
11346;SDS011;5728;42.722;23.258;2023-04-19T08:47:23;2.90;;;2.57;;
11346;SDS011;5728;42.722;23.258;2023-04-19T08:49:50;3.10;;;2.80;;
11346;SDS011;5728;42.722;23.258;2023-04-19T08:52:20;3.83;;;2.63;;
11346;SDS011;5728;42.722;23.258;2023-04-19T08:54:47;2.73;;;2.50;;
11346;SDS011;5728;42.722;23.258;2023-04-19T08:57:15;3.90;;;2.70;;
11346;SDS011;5728;42.722;23.258;2023-04-19T08:59:42;2.47;;;2.27;;
11346;SDS011;5728;42.722;23.258;2023-04-19T09:02:13;3.37;;;2.37;;
11346;SDS011;5728;42.722;23.258;2023-04-19T09:04:41;2.30;;;2.03;;
11346;SDS011;5728;42.722;23.258;2023-04-19T09:07:21;2.60;;;2.40;;
11346;SDS011;5728;42.722;23.258;2023-04-19T09:09:50;3.17;;;2.33;;
11346;SDS011;5728;42.722;23.258;2023-04-19T09:12:31;2.70;;;2.37;;
11346;SDS011;5728;42.722;23.258;2023-04-19T09:14:59;2.60;;;2.40;;
11346;SDS011;5728;42.722;23.258;2023-04-19T09:17:26;2.87;;;2.60;;
11346;SDS011;5728;42.722;23.258;2023-04-19T09:19:54;2.37;;;2.13;;
11346;SDS011;5728;42.722;23.258;2023-04-19T09:22:21;2.27;;;2.07;;
11346;SDS011;5728;42.722;23.258;2023-04-19T09:24:49;2.80;;;2.30;;
11346;SDS011;5728;42.722;23.258;2023-04-19T09:27:21;2.90;;;2.50;;
11346;SDS011;5728;42.722;23.258;2023-04-19T09:29:52;2.67;;;2.20;;
11346;SDS011;5728;42.722;23.258;2023-04-19T09:32:20;2.85;;;2.15;;
11346;SDS011;5728;42.722;23.258;2023-04-19T09:34:51;2.43;;;2.23;;
11346;SDS011;5728;42.722;23.258;2023-04-19T09:37:19;2.63;;;2.00;;
11346;SDS011;5728;42.722;23.258;2023-04-19T09:39:47;1.60;;;1.50;;
11346;SDS011;5728;42.722;23.258;2023-04-19T09:42:14;2.43;;;2.23;;
11346;SDS011;5728;42.722;23.258;2023-04-19T09:44:41;2.33;;;2.13;;
11346;SDS011;5728;42.722;23.258;2023-04-19T09:47:20;2.78;;;2.17;;
11346;SDS011;5728;42.722;23.258;2023-04-19T09:50:02;4.65;;;2.47;;
11346;SDS011;5728;42.722;23.258;2023-04-19T09:52:34;5.88;;;2.38;;
11346;SDS011;5728;42.722;23.258;2023-04-19T09:55:02;3.30;;;2.42;;
11346;SDS011;5728;42.722;23.258;2023-04-19T09:57:31;3.25;;;2.50;;
11346;SDS011;5728;42.722;23.258;2023-04-19T09:59:59;4.93;;;2.65;;
11346;SDS011;5728;42.722;23.258;2023-04-19T10:02:29;2.67;;;2.20;;
11346;SDS011;5728;42.722;23.258;2023-04-19T10:04:57;2.28;;;2.05;;
11346;SDS011;5728;42.722;23.258;2023-04-19T10:07:24;3.30;;;2.22;;
11346;SDS011;5728;42.722;23.258;2023-04-19T10:09:54;2.80;;;2.60;;
11346;SDS011;5728;42.722;23.258;2023-04-19T10:12:22;2.60;;;2.40;;
11346;SDS011;5728;42.722;23.258;2023-04-19T10:14:51;2.47;;;2.23;;
11346;SDS011;5728;42.722;23.258;2023-04-19T10:17:21;3.72;;;2.42;;
11346;SDS011;5728;42.722;23.258;2023-04-19T10:19:49;2.30;;;2.10;;
11346;SDS011;5728;42.722;23.258;2023-04-19T10:22:21;2.97;;;2.30;;
11346;SDS011;5728;42.722;23.258;2023-04-19T10:25:08;2.45;;;2.17;;
11346;SDS011;5728;42.722;23.258;2023-04-19T10:27:37;6.18;;;2.33;;
11346;SDS011;5728;42.722;23.258;2023-04-19T10:30:04;3.58;;;2.80;;
11346;SDS011;5728;42.722;23.258;2023-04-19T10:32:37;2.55;;;2.30;;
11346;SDS011;5728;42.722;23.258;2023-04-19T10:35:08;2.63;;;2.08;;
11346;SDS011;5728;42.722;23.258;2023-04-19T10:37:38;2.42;;;2.22;;
11346;SDS011;5728;42.722;23.258;2023-04-19T10:40:08;2.67;;;2.45;;
11346;SDS011;5728;42.722;23.258;2023-04-19T10:45:40;3.85;;;3.13;;
11346;SDS011;5728;42.722;23.258;2023-04-19T10:48:07;2.50;;;2.30;;
11346;SDS011;5728;42.722;23.258;2023-04-19T10:50:57;3.05;;;2.33;;
11346;SDS011;5728;42.722;23.258;2023-04-19T10:56:14;3.72;;;2.20;;
11346;SDS011;5728;42.722;23.258;2023-04-19T11:01:45;2.53;;;2.33;;
11346;SDS011;5728;42.722;23.258;2023-04-19T11:04:14;2.33;;;2.13;;
11346;SDS011;5728;42.722;23.258;2023-04-19T11:06:55;2.80;;;2.28;;
11346;SDS011;5728;42.722;23.258;2023-04-19T11:09:26;2.53;;;2.33;;
11346;SDS011;5728;42.722;23.258;2023-04-19T11:11:57;2.60;;;2.40;;
11346;SDS011;5728;42.722;23.258;2023-04-19T11:14:27;2.15;;;1.95;;
11346;SDS011;5728;42.722;23.258;2023-04-19T11:16:56;2.53;;;1.98;;
11346;SDS011;5728;42.722;23.258;2023-04-19T11:19:22;2.85;;;2.28;;
11346;SDS011;5728;42.722;23.258;2023-04-19T11:21:49;2.42;;;2.22;;
11346;SDS011;5728;42.722;23.258;2023-04-19T11:24:16;2.25;;;2.05;;
11346;SDS011;5728;42.722;23.258;2023-04-19T11:26:44;10.18;;;2.72;;
11346;SDS011;5728;42.722;23.258;2023-04-19T11:29:13;2.85;;;1.77;;
11346;SDS011;5728;42.722;23.258;2023-04-19T11:31:42;2.40;;;2.20;;
11346;SDS011;5728;42.722;23.258;2023-04-19T11:34:10;1.77;;;1.67;;
11346;SDS011;5728;42.722;23.258;2023-04-19T11:36:45;2.78;;;2.53;;
11346;SDS011;5728;42.722;23.258;2023-04-19T11:39:13;3.08;;;2.78;;
11346;SDS011;5728;42.722;23.258;2023-04-19T11:41:40;2.92;;;2.17;;
11346;SDS011;5728;42.722;23.258;2023-04-19T11:44:15;3.95;;;2.22;;
11346;SDS011;5728;42.722;23.258;2023-04-19T11:46:56;2.28;;;1.88;;
11346;SDS011;5728;42.722;23.258;2023-04-19T11:49:27;2.33;;;2.08;;
11346;SDS011;5728;42.722;23.258;2023-04-19T11:51:55;1.55;;;1.45;;
11346;SDS011;5728;42.722;23.258;2023-04-19T11:54:23;3.92;;;2.35;;
11346;SDS011;5728;42.722;23.258;2023-04-19T11:57:00;2.22;;;2.03;;
11346;SDS011;5728;42.722;23.258;2023-04-19T11:59:30;2.20;;;2.00;;
11346;SDS011;5728;42.722;23.258;2023-04-19T12:02:07;1.58;;;1.48;;
11346;SDS011;5728;42.722;23.258;2023-04-19T12:04:34;2.00;;;1.80;;
11346;SDS011;5728;42.722;23.258;2023-04-19T12:07:02;1.90;;;1.73;;
11346;SDS011;5728;42.722;23.258;2023-04-19T12:09:31;2.05;;;1.77;;
11346;SDS011;5728;42.722;23.258;2023-04-19T12:11:59;3.33;;;1.85;;
11346;SDS011;5728;42.722;23.258;2023-04-19T12:14:26;2.50;;;2.00;;
11346;SDS011;5728;42.722;23.258;2023-04-19T12:17:05;3.15;;;2.42;;
11346;SDS011;5728;42.722;23.258;2023-04-19T12:19:36;2.47;;;2.28;;
11346;SDS011;5728;42.722;23.258;2023-04-19T12:22:11;4.10;;;2.60;;
11346;SDS011;5728;42.722;23.258;2023-04-19T12:24:39;3.88;;;2.15;;
11346;SDS011;5728;42.722;23.258;2023-04-19T12:27:06;3.83;;;3.42;;
11346;SDS011;5728;42.722;23.258;2023-04-19T12:29:33;2.83;;;2.33;;
11346;SDS011;5728;42.722;23.258;2023-04-19T12:32:00;3.80;;;3.33;;
11346;SDS011;5728;42.722;23.258;2023-04-19T12:34:29;5.68;;;3.70;;
11346;SDS011;5728;42.722;23.258;2023-04-19T12:36:56;5.50;;;4.47;;
11346;SDS011;5728;42.722;23.258;2023-04-19T12:39:23;6.22;;;4.88;;
11346;SDS011;5728;42.722;23.258;2023-04-19T12:41:50;6.53;;;5.15;;
11346;SDS011;5728;42.722;23.258;2023-04-19T12:44:16;5.82;;;4.80;;
11346;SDS011;5728;42.722;23.258;2023-04-19T12:46:43;5.20;;;4.32;;
11346;SDS011;5728;42.722;23.258;2023-04-19T12:49:10;7.95;;;5.60;;
11346;SDS011;5728;42.722;23.258;2023-04-19T12:51:38;3.75;;;3.13;;
11346;SDS011;5728;42.722;23.258;2023-04-19T12:54:06;8.95;;;2.05;;
11346;SDS011;5728;42.722;23.258;2023-04-19T12:56:33;2.10;;;1.60;;
11346;SDS011;5728;42.722;23.258;2023-04-19T12:59:00;1.30;;;1.20;;
11346;SDS011;5728;42.722;23.258;2023-04-19T13:01:27;6.05;;;1.40;;
11346;SDS011;5728;42.722;23.258;2023-04-19T13:03:53;2.80;;;1.30;;
11346;SDS011;5728;42.722;23.258;2023-04-19T13:06:20;1.73;;;1.23;;
11346;SDS011;5728;42.722;23.258;2023-04-19T13:08:48;4.95;;;1.20;;
11346;SDS011;5728;42.722;23.258;2023-04-19T13:11:15;2.60;;;1.67;;
11346;SDS011;5728;42.722;23.258;2023-04-19T13:13:47;4.30;;;1.40;;
11346;SDS011;5728;42.722;23.258;2023-04-19T13:16:14;2.05;;;1.60;;
11346;SDS011;5728;42.722;23.258;2023-04-19T13:18:41;4.50;;;1.50;;
11346;SDS011;5728;42.722;23.258;2023-04-19T13:21:08;2.15;;;1.60;;
11346;SDS011;5728;42.722;23.258;2023-04-19T13:23:35;5.97;;;2.00;;
11346;SDS011;5728;42.722;23.258;2023-04-19T13:26:04;2.20;;;1.77;;
11346;SDS011;5728;42.722;23.258;2023-04-19T13:28:32;2.13;;;1.92;;
11346;SDS011;5728;42.722;23.258;2023-04-19T13:31:01;3.15;;;1.88;;
11346;SDS011;5728;42.722;23.258;2023-04-19T13:33:28;2.45;;;1.50;;
11346;SDS011;5728;42.722;23.258;2023-04-19T13:35:55;2.05;;;1.67;;
11346;SDS011;5728;42.722;23.258;2023-04-19T13:38:22;1.65;;;1.52;;
11346;SDS011;5728;42.722;23.258;2023-04-19T13:40:49;1.52;;;1.40;;
11346;SDS011;5728;42.722;23.258;2023-04-19T13:43:17;1.60;;;1.33;;
11346;SDS011;5728;42.722;23.258;2023-04-19T13:45:44;1.60;;;1.50;;
11346;SDS011;5728;42.722;23.258;2023-04-19T13:48:11;3.78;;;1.73;;
11346;SDS011;5728;42.722;23.258;2023-04-19T13:50:37;3.25;;;1.95;;
11346;SDS011;5728;42.722;23.258;2023-04-19T13:53:04;2.97;;;1.48;;
11346;SDS011;5728;42.722;23.258;2023-04-19T13:55:31;2.10;;;1.40;;
11346;SDS011;5728;42.722;23.258;2023-04-19T13:57:58;3.40;;;1.45;;
11346;SDS011;5728;42.722;23.258;2023-04-19T14:00:26;2.45;;;2.03;;
11346;SDS011;5728;42.722;23.258;2023-04-19T14:02:53;4.32;;;1.80;;
11346;SDS011;5728;42.722;23.258;2023-04-19T14:05:20;1.90;;;1.80;;
11346;SDS011;5728;42.722;23.258;2023-04-19T14:07:47;1.60;;;1.50;;
11346;SDS011;5728;42.722;23.258;2023-04-19T14:10:14;2.20;;;1.67;;
11346;SDS011;5728;42.722;23.258;2023-04-19T14:12:41;1.70;;;1.60;;
11346;SDS011;5728;42.722;23.258;2023-04-19T14:15:09;4.15;;;1.65;;
11346;SDS011;5728;42.722;23.258;2023-04-19T14:17:38;2.67;;;1.70;;
11346;SDS011;5728;42.722;23.258;2023-04-19T14:20:05;2.20;;;2.00;;
11346;SDS011;5728;42.722;23.258;2023-04-19T14:22:32;3.92;;;2.53;;
11346;SDS011;5728;42.722;23.258;2023-04-19T14:25:00;3.30;;;2.53;;
11346;SDS011;5728;42.722;23.258;2023-04-19T14:27:27;3.10;;;2.30;;
11346;SDS011;5728;42.722;23.258;2023-04-19T14:29:54;2.80;;;2.40;;
11346;SDS011;5728;42.722;23.258;2023-04-19T14:32:21;3.88;;;2.30;;
11346;SDS011;5728;42.722;23.258;2023-04-19T14:34:49;2.53;;;2.08;;
11346;SDS011;5728;42.722;23.258;2023-04-19T14:37:16;8.90;;;2.38;;
11346;SDS011;5728;42.722;23.258;2023-04-19T14:39:43;3.15;;;2.75;;
11346;SDS011;5728;42.722;23.258;2023-04-19T14:42:10;4.93;;;3.08;;
11346;SDS011;5728;42.722;23.258;2023-04-19T14:44:37;5.70;;;2.92;;
11346;SDS011;5728;42.722;23.258;2023-04-19T14:47:04;4.85;;;2.58;;
11346;SDS011;5728;42.722;23.258;2023-04-19T14:49:33;4.47;;;3.13;;
11346;SDS011;5728;42.722;23.258;2023-04-19T14:52:01;3.15;;;2.45;;
11346;SDS011;5728;42.722;23.258;2023-04-19T14:54:28;5.13;;;2.88;;
11346;SDS011;5728;42.722;23.258;2023-04-19T14:56:55;6.10;;;2.35;;
11346;SDS011;5728;42.722;23.258;2023-04-19T14:59:22;4.22;;;3.40;;
11346;SDS011;5728;42.722;23.258;2023-04-19T15:01:49;4.18;;;2.45;;